KTNU/TNU METAR and TAF weather

Enter ICAO airport designator
Station Type Date Time Source
KTNU METAR 2020/01/23 05:55 UTC NOAA

KTNU 230555Z AUTO 15010KT 2SM BR OVC004 M00/M00 A2992 RMK A01


Station Type Date Time Source
KTNU Decoded METAR 2020/01/23 05:55 UTC NOAA

Newton Municipal, IA, United States (KTNU) 41-41N 093-01W
Jan 23, 2020 - 12:55 AM EST / 2020.01.23 0555 UTC
Wind: from the SSE (150 degrees) at 12 MPH (10 KT):0
Visibility: 2 mile(s):0
Sky conditions: overcast
Weather: mist
Temperature: 32 F (0 C)
Windchill: 23 F (-5 C):1
Dew Point: 32 F (0 C)
Relative Humidity: 100%
Pressure (altimeter): 29.92 in. Hg (1013 hPa)
ob: KTNU 230555Z AUTO 15010KT 2SM BR OVC004 M00/M00 A2992 RMK A01
cycle: 6

Station Type Date Time Source
KTNU TAF UTC NOAA

Error!

Example: see airport list